RA0268P ULLI-ULLY
Flight info
| Callsign | RA0268P |
|---|---|
| Flight time | N/A |
| Altitude | 1000 |
| Route | BULIL2D/28R DCT BULIL DCT |
| Aircraft | R66/L-SG/C |
Departure
| Time | 2026-04-30 17:42 |
|---|---|
| Airport | Pulkovo Airport (ULLI) |
Arrival
| Time | N/A |
|---|---|
| Airport | ULLY |
| Time | Latitude | Longitude | Altitude | Speed | Heading |
|---|---|---|---|---|---|
| 2026-04-30 17:39 | 59.80628 | 30.28747 | 61 ft | 0 kts | 275° |
| 2026-04-30 17:41 | 59.80741 | 30.27476 | 330 ft | 56 kts | 285° |
| 2026-04-30 17:42 | 59.81227 | 30.26005 | 458 ft | 72 kts | 314° |
| 2026-04-30 17:42 | 59.82565 | 30.24714 | 757 ft | 67 kts | 352° |
| 2026-04-30 17:43 | 59.83372 | 30.23843 | 956 ft | 65 kts | 326° |
| 2026-04-30 17:44 | 59.84734 | 30.22153 | 985 ft | 86 kts | 325° |
| 2026-04-30 17:44 | 59.86247 | 30.20267 | 989 ft | 85 kts | 327° |
| 2026-04-30 17:46 | 59.88819 | 30.17134 | 989 ft | 88 kts | 325° |
| 2026-04-30 17:47 | 59.90733 | 30.14227 | 989 ft | 82 kts | 311° |
| 2026-04-30 17:48 | 59.92409 | 30.10408 | 990 ft | 98 kts | 307° |
| 2026-04-30 17:48 | 59.93601 | 30.07418 | 989 ft | 101 kts | 307° |
| 2026-04-30 17:49 | 59.95267 | 30.02422 | 989 ft | 104 kts | 295° |
| 2026-04-30 17:51 | 59.97480 | 29.93817 | 990 ft | 100 kts | 297° |
| 2026-04-30 17:52 | 59.98439 | 29.90164 | 993 ft | 100 kts | 297° |
| 2026-04-30 17:53 | 59.99700 | 29.84050 | 993 ft | 83 kts | 293° |
| 2026-04-30 17:54 | 60.00754 | 29.80238 | 988 ft | 74 kts | 295° |
| 2026-04-30 17:55 | 60.01529 | 29.77176 | 943 ft | 58 kts | 285° |
| 2026-04-30 17:56 | 60.01502 | 29.74523 | 770 ft | 60 kts | 268° |
| 2026-04-30 17:57 | 60.01396 | 29.72430 | 422 ft | 45 kts | 275° |
| 2026-04-30 17:58 | 60.01439 | 29.71167 | 179 ft | 36 kts | 273° |